Time;durP1;ratioP1;P1;durP2;ratioP2;P2;SDS_P1;SDS_P2;PMS_P1;PMS_P2;Temp;Humidity;BMP_temperature;BMP_pressure;BME280_temperature;BME280_humidity;BME280_pressure;Samples;Min_cycle;Max_cycle;Signal;HPM_P1;HPM_P2
2021/02/07 00:00:26;;;;;;;39.5;24.3;;;;;;;4.19;100;93565.75;;;;
2021/02/07 00:01:26;;;;;;;39.5;24.3;;;;;;;4.19;100;93565.75;;;;
2021/02/07 00:02:27;;;;;;;39.5;24.3;;;;;;;4.19;100;93565.75;;;;
2021/02/07 00:03:27;;;;;;;39.5;24.3;;;;;;;4.19;100;93565.75;;;;
2021/02/07 00:04:28;;;;;;;39.5;24.3;;;;;;;4.19;100;93565.75;;;;
2021/02/07 00:05:28;;;;;;;39.5;24.3;;;;;;;4.19;100;93565.75;;;;
2021/02/07 00:06:29;;;;;;;39.5;24.3;;;;;;;4.19;100;93565.75;;;;
2021/02/07 00:07:30;;;;;;;39.5;24.3;;;;;;;4.19;100;93565.75;;;;
2021/02/07 00:08:30;;;;;;;39.5;24.3;;;;;;;4.19;100;93565.75;;;;
2021/02/07 00:09:31;;;;;;;39.5;24.3;;;;;;;4.19;100;93565.75;;;;
2021/02/07 00:10:31;;;;;;;39.5;24.3;;;;;;;4.19;100;93565.75;;;;
2021/02/07 00:11:32;;;;;;;37.35;23.40001;;;;;;;4.15;100;93549.39;;;;
2021/02/07 00:12:32;;;;;;;37.35;23.40001;;;;;;;4.15;100;93549.39;;;;
2021/02/07 00:13:33;;;;;;;37.35;23.40001;;;;;;;4.15;100;93549.39;;;;
2021/02/07 00:14:33;;;;;;;37.35;23.40001;;;;;;;4.15;100;93549.39;;;;
2021/02/07 00:15:34;;;;;;;37.35;23.40001;;;;;;;4.15;100;93549.39;;;;
2021/02/07 00:16:34;;;;;;;37.35;23.40001;;;;;;;4.15;100;93549.39;;;;
2021/02/07 00:17:35;;;;;;;37.35;23.40001;;;;;;;4.15;100;93549.39;;;;
2021/02/07 00:18:35;;;;;;;37.35;23.40001;;;;;;;4.15;100;93549.39;;;;
2021/02/07 00:19:36;;;;;;;37.35;23.40001;;;;;;;4.15;100;93549.39;;;;
2021/02/07 00:20:36;;;;;;;37.35;23.40001;;;;;;;4.15;100;93549.39;;;;
2021/02/07 00:21:37;;;;;;;39.85;23.2;;;;;;;4.08;100;93533.09;;;;
2021/02/07 00:22:38;;;;;;;39.85;23.2;;;;;;;4.08;100;93533.09;;;;
2021/02/07 00:23:40;;;;;;;39.85;23.2;;;;;;;4.08;100;93533.09;;;;
2021/02/07 00:24:40;;;;;;;39.85;23.2;;;;;;;4.08;100;93533.09;;;;
2021/02/07 00:25:53;;;;;;;39.85;23.2;;;;;;;4.08;100;93533.09;;;;
2021/02/07 00:26:54;;;;;;;39.85;23.2;;;;;;;4.08;100;93533.09;;;;
2021/02/07 00:27:55;;;;;;;39.85;23.2;;;;;;;4.08;100;93533.09;;;;
2021/02/07 00:28:55;;;;;;;39.85;23.2;;;;;;;4.08;100;93533.09;;;;
2021/02/07 00:29:56;;;;;;;39.85;23.2;;;;;;;4.08;100;93533.09;;;;
2021/02/07 00:30:56;;;;;;;39.85;23.2;;;;;;;4.08;100;93533.09;;;;
2021/02/07 00:31:57;;;;;;;39.85;23.2;;;;;;;4.08;100;93533.09;;;;
2021/02/07 00:32:58;;;;;;;37.64999;22.8;;;;;;;4.09;100;93551.67;;;;
2021/02/07 00:33:59;;;;;;;37.64999;22.8;;;;;;;4.09;100;93551.67;;;;
2021/02/07 00:34:59;;;;;;;37.64999;22.8;;;;;;;4.09;100;93551.67;;;;
2021/02/07 00:36:00;;;;;;;37.64999;22.8;;;;;;;4.09;100;93551.67;;;;
2021/02/07 00:37:00;;;;;;;37.64999;22.8;;;;;;;4.09;100;93551.67;;;;
2021/02/07 00:38:01;;;;;;;37.64999;22.8;;;;;;;4.09;100;93551.67;;;;
2021/02/07 00:39:01;;;;;;;37.64999;22.8;;;;;;;4.09;100;93551.67;;;;
2021/02/07 00:40:04;;;;;;;37.64999;22.8;;;;;;;4.09;100;93551.67;;;;
2021/02/07 00:41:09;;;;;;;37.64999;22.8;;;;;;;4.09;100;93551.67;;;;
2021/02/07 00:42:09;;;;;;;37.64999;22.8;;;;;;;4.09;100;93551.67;;;;
2021/02/07 00:43:10;;;;;;;39.35;22.8;;;;;;;4.06;100;93564.7;;;;
2021/02/07 00:44:11;;;;;;;39.35;22.8;;;;;;;4.06;100;93564.7;;;;
2021/02/07 00:45:11;;;;;;;39.35;22.8;;;;;;;4.06;100;93564.7;;;;
2021/02/07 00:46:13;;;;;;;39.35;22.8;;;;;;;4.06;100;93564.7;;;;
2021/02/07 00:47:13;;;;;;;39.35;22.8;;;;;;;4.06;100;93564.7;;;;
2021/02/07 00:48:14;;;;;;;39.35;22.8;;;;;;;4.06;100;93564.7;;;;
2021/02/07 00:49:14;;;;;;;39.35;22.8;;;;;;;4.06;100;93564.7;;;;
2021/02/07 00:50:15;;;;;;;39.35;22.8;;;;;;;4.06;100;93564.7;;;;
2021/02/07 00:51:16;;;;;;;39.35;22.8;;;;;;;4.06;100;93564.7;;;;
2021/02/07 00:52:17;;;;;;;39.35;22.8;;;;;;;4.06;100;93564.7;;;;
2021/02/07 00:53:17;;;;;;;39.35;22.8;;;;;;;4.06;100;93564.7;;;;
2021/02/07 00:54:18;;;;;;;34.65001;21.55;;;;;;;4.02;100;93570.11;;;;
2021/02/07 00:55:19;;;;;;;34.65001;21.55;;;;;;;4.02;100;93570.11;;;;
2021/02/07 00:56:20;;;;;;;34.65001;21.55;;;;;;;4.02;100;93570.11;;;;
2021/02/07 00:57:20;;;;;;;34.65001;21.55;;;;;;;4.02;100;93570.11;;;;
2021/02/07 00:58:20;;;;;;;34.65001;21.55;;;;;;;4.02;100;93570.11;;;;
2021/02/07 00:59:21;;;;;;;34.65001;21.55;;;;;;;4.02;100;93570.11;;;;
2021/02/07 01:00:21;;;;;;;34.65001;21.55;;;;;;;4.02;100;93570.11;;;;
2021/02/07 01:01:22;;;;;;;34.65001;21.55;;;;;;;4.02;100;93570.11;;;;
2021/02/07 01:02:23;;;;;;;34.65001;21.55;;;;;;;4.02;100;93570.11;;;;
2021/02/07 01:03:23;;;;;;;34.65001;21.55;;;;;;;4.02;100;93570.11;;;;
2021/02/07 01:04:24;;;;;;;37.9;22.54999;;;;;;;3.92;100;93569.11;;;;
2021/02/07 01:05:24;;;;;;;37.9;22.54999;;;;;;;3.92;100;93569.11;;;;
2021/02/07 01:06:25;;;;;;;37.9;22.54999;;;;;;;3.92;100;93569.11;;;;
2021/02/07 01:07:25;;;;;;;37.9;22.54999;;;;;;;3.92;100;93569.11;;;;
2021/02/07 01:08:26;;;;;;;37.9;22.54999;;;;;;;3.92;100;93569.11;;;;
2021/02/07 01:09:26;;;;;;;37.9;22.54999;;;;;;;3.92;100;93569.11;;;;
2021/02/07 01:10:27;;;;;;;37.9;22.54999;;;;;;;3.92;100;93569.11;;;;
2021/02/07 01:11:27;;;;;;;37.9;22.54999;;;;;;;3.92;100;93569.11;;;;
2021/02/07 01:12:28;;;;;;;37.9;22.54999;;;;;;;3.92;100;93569.11;;;;
2021/02/07 01:13:28;;;;;;;37.9;22.54999;;;;;;;3.92;100;93569.11;;;;
2021/02/07 01:14:29;;;;;;;37.9;22.54999;;;;;;;3.92;100;93569.11;;;;
2021/02/07 01:15:30;;;;;;;38.3;23.25;;;;;;;3.88;100;93572.77;;;;
2021/02/07 01:16:30;;;;;;;38.3;23.25;;;;;;;3.88;100;93572.77;;;;
2021/02/07 01:17:31;;;;;;;38.3;23.25;;;;;;;3.88;100;93572.77;;;;
2021/02/07 01:18:31;;;;;;;38.3;23.25;;;;;;;3.88;100;93572.77;;;;
2021/02/07 01:19:32;;;;;;;38.3;23.25;;;;;;;3.88;100;93572.77;;;;
2021/02/07 01:20:33;;;;;;;38.3;23.25;;;;;;;3.88;100;93572.77;;;;
2021/02/07 01:21:33;;;;;;;38.3;23.25;;;;;;;3.88;100;93572.77;;;;
2021/02/07 01:22:34;;;;;;;38.3;23.25;;;;;;;3.88;100;93572.77;;;;
2021/02/07 01:23:34;;;;;;;38.3;23.25;;;;;;;3.88;100;93572.77;;;;
2021/02/07 01:24:35;;;;;;;38.3;23.25;;;;;;;3.88;100;93572.77;;;;
2021/02/07 01:25:35;;;;;;;37.4;23;;;;;;;3.89;100;93575.72;;;;
2021/02/07 01:26:36;;;;;;;37.4;23;;;;;;;3.89;100;93575.72;;;;
2021/02/07 01:27:36;;;;;;;37.4;23;;;;;;;3.89;100;93575.72;;;;
2021/02/07 01:28:37;;;;;;;37.4;23;;;;;;;3.89;100;93575.72;;;;
2021/02/07 01:29:37;;;;;;;37.4;23;;;;;;;3.89;100;93575.72;;;;
2021/02/07 01:30:38;;;;;;;37.4;23;;;;;;;3.89;100;93575.72;;;;
2021/02/07 01:31:38;;;;;;;37.4;23;;;;;;;3.89;100;93575.72;;;;
2021/02/07 01:32:39;;;;;;;37.4;23;;;;;;;3.89;100;93575.72;;;;
2021/02/07 01:33:39;;;;;;;37.4;23;;;;;;;3.89;100;93575.72;;;;
2021/02/07 01:34:40;;;;;;;37.4;23;;;;;;;3.89;100;93575.72;;;;
2021/02/07 01:35:40;;;;;;;37.4;23;;;;;;;3.89;100;93575.72;;;;
2021/02/07 01:36:42;;;;;;;36.60001;21;;;;;;;3.85;100;93559.47;;;;
2021/02/07 01:37:42;;;;;;;36.60001;21;;;;;;;3.85;100;93559.47;;;;
2021/02/07 01:38:43;;;;;;;36.60001;21;;;;;;;3.85;100;93559.47;;;;
2021/02/07 01:39:43;;;;;;;36.60001;21;;;;;;;3.85;100;93559.47;;;;
2021/02/07 01:40:44;;;;;;;36.60001;21;;;;;;;3.85;100;93559.47;;;;
2021/02/07 01:41:44;;;;;;;36.60001;21;;;;;;;3.85;100;93559.47;;;;
2021/02/07 01:42:54;;;;;;;36.60001;21;;;;;;;3.85;100;93559.47;;;;
2021/02/07 01:43:54;;;;;;;36.60001;21;;;;;;;3.85;100;93559.47;;;;
2021/02/07 01:44:55;;;;;;;36.60001;21;;;;;;;3.85;100;93559.47;;;;
2021/02/07 01:45:59;;;;;;;36.60001;21;;;;;;;3.85;100;93559.47;;;;
2021/02/07 01:47:07;;;;;;;35.2;21.45;;;;;;;3.74;100;93593.7;;;;
2021/02/07 01:48:08;;;;;;;35.2;21.45;;;;;;;3.74;100;93593.7;;;;
2021/02/07 01:49:09;;;;;;;35.2;21.45;;;;;;;3.74;100;93593.7;;;;
2021/02/07 01:50:10;;;;;;;35.2;21.45;;;;;;;3.74;100;93593.7;;;;
2021/02/07 01:51:12;;;;;;;35.2;21.45;;;;;;;3.74;100;93593.7;;;;
2021/02/07 01:52:13;;;;;;;35.2;21.45;;;;;;;3.74;100;93593.7;;;;
2021/02/07 01:53:13;;;;;;;35.2;21.45;;;;;;;3.74;100;93593.7;;;;
2021/02/07 01:54:14;;;;;;;35.2;21.45;;;;;;;3.74;100;93593.7;;;;
2021/02/07 01:55:15;;;;;;;35.2;21.45;;;;;;;3.74;100;93593.7;;;;
2021/02/07 01:56:16;;;;;;;35.2;21.45;;;;;;;3.74;100;93593.7;;;;
2021/02/07 01:57:17;;;;;;;35.2;21.45;;;;;;;3.74;100;93593.7;;;;
2021/02/07 01:58:18;;;;;;;35.45;20.9;;;;;;;3.67;100;93588.06;;;;
2021/02/07 01:59:19;;;;;;;35.45;20.9;;;;;;;3.67;100;93588.06;;;;
2021/02/07 02:00:19;;;;;;;35.45;20.9;;;;;;;3.67;100;93588.06;;;;
2021/02/07 02:01:20;;;;;;;35.45;20.9;;;;;;;3.67;100;93588.06;;;;
2021/02/07 02:02:20;;;;;;;35.45;20.9;;;;;;;3.67;100;93588.06;;;;
2021/02/07 02:03:21;;;;;;;35.45;20.9;;;;;;;3.67;100;93588.06;;;;
2021/02/07 02:04:23;;;;;;;35.45;20.9;;;;;;;3.67;100;93588.06;;;;
2021/02/07 02:05:23;;;;;;;35.45;20.9;;;;;;;3.67;100;93588.06;;;;
2021/02/07 02:06:24;;;;;;;35.45;20.9;;;;;;;3.67;100;93588.06;;;;
2021/02/07 02:07:29;;;;;;;35.45;20.9;;;;;;;3.67;100;93588.06;;;;
2021/02/07 02:08:37;;;;;;;36.1;20.6;;;;;;;3.65;100;93515.99;;;;
2021/02/07 02:09:49;;;;;;;36.1;20.6;;;;;;;3.65;100;93515.99;;;;
2021/02/07 02:10:58;;;;;;;36.1;20.6;;;;;;;3.65;100;93515.99;;;;
2021/02/07 02:12:05;;;;;;;36.1;20.6;;;;;;;3.65;100;93515.99;;;;
2021/02/07 02:13:17;;;;;;;36.1;20.6;;;;;;;3.65;100;93515.99;;;;
2021/02/07 02:14:24;;;;;;;36.1;20.6;;;;;;;3.65;100;93515.99;;;;
2021/02/07 02:15:33;;;;;;;36.1;20.6;;;;;;;3.65;100;93515.99;;;;
2021/02/07 02:16:45;;;;;;;36.1;20.6;;;;;;;3.65;100;93515.99;;;;
2021/02/07 02:17:52;;;;;;;36.1;20.6;;;;;;;3.65;100;93515.99;;;;
2021/02/07 02:18:58;;;;;;;35.5;21.2;;;;;;;3.55;100;93511.66;;;;
2021/02/07 02:20:06;;;;;;;35.5;21.2;;;;;;;3.55;100;93511.66;;;;
2021/02/07 02:21:16;;;;;;;35.5;21.2;;;;;;;3.55;100;93511.66;;;;
2021/02/07 02:22:19;;;;;;;35.5;21.2;;;;;;;3.55;100;93511.66;;;;
2021/02/07 02:23:23;;;;;;;35.5;21.2;;;;;;;3.55;100;93511.66;;;;
2021/02/07 02:24:26;;;;;;;35.5;21.2;;;;;;;3.55;100;93511.66;;;;
2021/02/07 02:25:29;;;;;;;35.5;21.2;;;;;;;3.55;100;93511.66;;;;
2021/02/07 02:26:53;;;;;;;35.5;21.2;;;;;;;3.55;100;93511.66;;;;
2021/02/07 02:27:58;;;;;;;35.5;21.2;;;;;;;3.55;100;93511.66;;;;
2021/02/07 02:29:07;;;;;;;35.5;21.2;;;;;;;3.55;100;93511.66;;;;
2021/02/07 02:30:11;;;;;;;37.55;21.8;;;;;;;3.5;100;93511.16;;;;
2021/02/07 02:31:14;;;;;;;37.55;21.8;;;;;;;3.5;100;93511.16;;;;
2021/02/07 02:32:18;;;;;;;37.55;21.8;;;;;;;3.5;100;93511.16;;;;
2021/02/07 02:33:20;;;;;;;37.55;21.8;;;;;;;3.5;100;93511.16;;;;
2021/02/07 02:34:24;;;;;;;37.55;21.8;;;;;;;3.5;100;93511.16;;;;
2021/02/07 02:35:28;;;;;;;37.55;21.8;;;;;;;3.5;100;93511.16;;;;
2021/02/07 02:36:31;;;;;;;37.55;21.8;;;;;;;3.5;100;93511.16;;;;
2021/02/07 02:37:34;;;;;;;37.55;21.8;;;;;;;3.5;100;93511.16;;;;
2021/02/07 02:38:36;;;;;;;37.55;21.8;;;;;;;3.5;100;93511.16;;;;
2021/02/07 02:39:39;;;;;;;37.55;21.8;;;;;;;3.5;100;93511.16;;;;
2021/02/07 02:40:44;;;;;;;35.85;21.6;;;;;;;3.45;100;93504.39;;;;
2021/02/07 02:41:50;;;;;;;35.85;21.6;;;;;;;3.45;100;93504.39;;;;
2021/02/07 02:42:51;;;;;;;35.85;21.6;;;;;;;3.45;100;93504.39;;;;
2021/02/07 02:43:54;;;;;;;35.85;21.6;;;;;;;3.45;100;93504.39;;;;
2021/02/07 02:44:57;;;;;;;35.85;21.6;;;;;;;3.45;100;93504.39;;;;
2021/02/07 02:45:58;;;;;;;35.85;21.6;;;;;;;3.45;100;93504.39;;;;
2021/02/07 02:47:02;;;;;;;35.85;21.6;;;;;;;3.45;100;93504.39;;;;
2021/02/07 02:48:06;;;;;;;35.85;21.6;;;;;;;3.45;100;93504.39;;;;
2021/02/07 02:49:08;;;;;;;35.85;21.6;;;;;;;3.45;100;93504.39;;;;
2021/02/07 02:50:12;;;;;;;35.85;21.6;;;;;;;3.45;100;93504.39;;;;
2021/02/07 02:51:13;;;;;;;32.85;20.75;;;;;;;3.45;100;93481.71;;;;
2021/02/07 02:52:17;;;;;;;32.85;20.75;;;;;;;3.45;100;93481.71;;;;
2021/02/07 02:53:20;;;;;;;32.85;20.75;;;;;;;3.45;100;93481.71;;;;
2021/02/07 02:54:23;;;;;;;32.85;20.75;;;;;;;3.45;100;93481.71;;;;
2021/02/07 02:55:26;;;;;;;32.85;20.75;;;;;;;3.45;100;93481.71;;;;
2021/02/07 02:56:29;;;;;;;32.85;20.75;;;;;;;3.45;100;93481.71;;;;
2021/02/07 02:57:30;;;;;;;32.85;20.75;;;;;;;3.45;100;93481.71;;;;
2021/02/07 02:58:34;;;;;;;32.85;20.75;;;;;;;3.45;100;93481.71;;;;
2021/02/07 02:59:36;;;;;;;32.85;20.75;;;;;;;3.45;100;93481.71;;;;
2021/02/07 03:00:38;;;;;;;32.85;20.75;;;;;;;3.45;100;93481.71;;;;
2021/02/07 03:01:42;;;;;;;35.45;20.95;;;;;;;3.45;100;93483.42;;;;
2021/02/07 03:02:43;;;;;;;35.45;20.95;;;;;;;3.45;100;93483.42;;;;
2021/02/07 03:03:45;;;;;;;35.45;20.95;;;;;;;3.45;100;93483.42;;;;
2021/02/07 03:04:46;;;;;;;35.45;20.95;;;;;;;3.45;100;93483.42;;;;
2021/02/07 03:05:48;;;;;;;35.45;20.95;;;;;;;3.45;100;93483.42;;;;
2021/02/07 03:06:48;;;;;;;35.45;20.95;;;;;;;3.45;100;93483.42;;;;
2021/02/07 03:07:49;;;;;;;35.45;20.95;;;;;;;3.45;100;93483.42;;;;
2021/02/07 03:08:50;;;;;;;35.45;20.95;;;;;;;3.45;100;93483.42;;;;
2021/02/07 03:09:51;;;;;;;35.45;20.95;;;;;;;3.45;100;93483.42;;;;
2021/02/07 03:10:52;;;;;;;35.45;20.95;;;;;;;3.45;100;93483.42;;;;
2021/02/07 03:11:52;;;;;;;35.45;20.95;;;;;;;3.45;100;93483.42;;;;
2021/02/07 03:12:53;;;;;;;32.45;20.25;;;;;;;3.39;100;93460.38;;;;
2021/02/07 03:13:53;;;;;;;32.45;20.25;;;;;;;3.39;100;93460.38;;;;
2021/02/07 03:14:54;;;;;;;32.45;20.25;;;;;;;3.39;100;93460.38;;;;
2021/02/07 03:15:54;;;;;;;32.45;20.25;;;;;;;3.39;100;93460.38;;;;
2021/02/07 03:16:55;;;;;;;32.45;20.25;;;;;;;3.39;100;93460.38;;;;
2021/02/07 03:17:56;;;;;;;32.45;20.25;;;;;;;3.39;100;93460.38;;;;
2021/02/07 03:18:56;;;;;;;32.45;20.25;;;;;;;3.39;100;93460.38;;;;
2021/02/07 03:20:01;;;;;;;32.45;20.25;;;;;;;3.39;100;93460.38;;;;
2021/02/07 03:21:09;;;;;;;32.45;20.25;;;;;;;3.39;100;93460.38;;;;
2021/02/07 03:22:19;;;;;;;32.45;20.25;;;;;;;3.39;100;93460.38;;;;
2021/02/07 03:23:28;;;;;;;36.95;21.3;;;;;;;3.35;100;93474.83;;;;
2021/02/07 03:24:32;;;;;;;36.95;21.3;;;;;;;3.35;100;93474.83;;;;
2021/02/07 03:25:38;;;;;;;36.95;21.3;;;;;;;3.35;100;93474.83;;;;
2021/02/07 03:26:42;;;;;;;36.95;21.3;;;;;;;3.35;100;93474.83;;;;
2021/02/07 03:27:46;;;;;;;36.95;21.3;;;;;;;3.35;100;93474.83;;;;
2021/02/07 03:28:50;;;;;;;36.95;21.3;;;;;;;3.35;100;93474.83;;;;
2021/02/07 03:29:54;;;;;;;36.95;21.3;;;;;;;3.35;100;93474.83;;;;
2021/02/07 03:30:58;;;;;;;36.95;21.3;;;;;;;3.35;100;93474.83;;;;
2021/02/07 03:32:02;;;;;;;36.95;21.3;;;;;;;3.35;100;93474.83;;;;
2021/02/07 03:33:05;;;;;;;36.95;21.3;;;;;;;3.35;100;93474.83;;;;
2021/02/07 03:34:08;;;;;;;38.55;20.95;;;;;;;3.32;100;93483.31;;;;
2021/02/07 03:35:10;;;;;;;38.55;20.95;;;;;;;3.32;100;93483.31;;;;
2021/02/07 03:36:13;;;;;;;38.55;20.95;;;;;;;3.32;100;93483.31;;;;
2021/02/07 03:37:14;;;;;;;38.55;20.95;;;;;;;3.32;100;93483.31;;;;
2021/02/07 03:38:15;;;;;;;38.55;20.95;;;;;;;3.32;100;93483.31;;;;
2021/02/07 03:39:16;;;;;;;38.55;20.95;;;;;;;3.32;100;93483.31;;;;
2021/02/07 03:40:17;;;;;;;38.55;20.95;;;;;;;3.32;100;93483.31;;;;
2021/02/07 03:41:19;;;;;;;38.55;20.95;;;;;;;3.32;100;93483.31;;;;
2021/02/07 03:42:20;;;;;;;38.55;20.95;;;;;;;3.32;100;93483.31;;;;
2021/02/07 03:43:22;;;;;;;38.55;20.95;;;;;;;3.32;100;93483.31;;;;
2021/02/07 03:44:23;;;;;;;36;20.9;;;;;;;3.31;100;93502.08;;;;
2021/02/07 03:45:24;;;;;;;36;20.9;;;;;;;3.31;100;93502.08;;;;
2021/02/07 03:46:25;;;;;;;36;20.9;;;;;;;3.31;100;93502.08;;;;
2021/02/07 03:47:26;;;;;;;36;20.9;;;;;;;3.31;100;93502.08;;;;
2021/02/07 03:48:29;;;;;;;36;20.9;;;;;;;3.31;100;93502.08;;;;
2021/02/07 03:49:29;;;;;;;36;20.9;;;;;;;3.31;100;93502.08;;;;
2021/02/07 03:50:30;;;;;;;36;20.9;;;;;;;3.31;100;93502.08;;;;
2021/02/07 03:51:32;;;;;;;36;20.9;;;;;;;3.31;100;93502.08;;;;
2021/02/07 03:52:36;;;;;;;36;20.9;;;;;;;3.31;100;93502.08;;;;
2021/02/07 03:53:38;;;;;;;36;20.9;;;;;;;3.31;100;93502.08;;;;
2021/02/07 03:54:39;;;;;;;36;20.9;;;;;;;3.31;100;93502.08;;;;
2021/02/07 03:55:40;;;;;;;36.9;20.45;;;;;;;3.36;100;93482.31;;;;
2021/02/07 03:56:41;;;;;;;36.9;20.45;;;;;;;3.36;100;93482.31;;;;
2021/02/07 03:57:42;;;;;;;36.9;20.45;;;;;;;3.36;100;93482.31;;;;
2021/02/07 03:58:43;;;;;;;36.9;20.45;;;;;;;3.36;100;93482.31;;;;
2021/02/07 03:59:47;;;;;;;36.9;20.45;;;;;;;3.36;100;93482.31;;;;
2021/02/07 04:00:52;;;;;;;36.9;20.45;;;;;;;3.36;100;93482.31;;;;
2021/02/07 04:01:55;;;;;;;36.9;20.45;;;;;;;3.36;100;93482.31;;;;
2021/02/07 04:02:55;;;;;;;36.9;20.45;;;;;;;3.36;100;93482.31;;;;
2021/02/07 04:03:56;;;;;;;36.9;20.45;;;;;;;3.36;100;93482.31;;;;
2021/02/07 04:04:56;;;;;;;36.9;20.45;;;;;;;3.36;100;93482.31;;;;
2021/02/07 04:05:57;;;;;;;33.45;20.4;;;;;;;3.34;100;93494.96;;;;
2021/02/07 04:06:57;;;;;;;33.45;20.4;;;;;;;3.34;100;93494.96;;;;
2021/02/07 04:07:58;;;;;;;33.45;20.4;;;;;;;3.34;100;93494.96;;;;
2021/02/07 04:08:58;;;;;;;33.45;20.4;;;;;;;3.34;100;93494.96;;;;
2021/02/07 04:09:59;;;;;;;33.45;20.4;;;;;;;3.34;100;93494.96;;;;
2021/02/07 04:10:59;;;;;;;33.45;20.4;;;;;;;3.34;100;93494.96;;;;
2021/02/07 04:12:00;;;;;;;33.45;20.4;;;;;;;3.34;100;93494.96;;;;
2021/02/07 04:13:00;;;;;;;33.45;20.4;;;;;;;3.34;100;93494.96;;;;
2021/02/07 04:14:01;;;;;;;33.45;20.4;;;;;;;3.34;100;93494.96;;;;
2021/02/07 04:15:02;;;;;;;33.45;20.4;;;;;;;3.34;100;93494.96;;;;
2021/02/07 04:16:03;;;;;;;33.45;20.4;;;;;;;3.34;100;93494.96;;;;
2021/02/07 04:17:04;;;;;;;37.45;20.8;;;;;;;3.34;100;93467.07;;;;
2021/02/07 04:18:05;;;;;;;37.45;20.8;;;;;;;3.34;100;93467.07;;;;
2021/02/07 04:19:05;;;;;;;37.45;20.8;;;;;;;3.34;100;93467.07;;;;
2021/02/07 04:20:06;;;;;;;37.45;20.8;;;;;;;3.34;100;93467.07;;;;
2021/02/07 04:21:07;;;;;;;37.45;20.8;;;;;;;3.34;100;93467.07;;;;
2021/02/07 04:22:08;;;;;;;37.45;20.8;;;;;;;3.34;100;93467.07;;;;
2021/02/07 04:23:08;;;;;;;37.45;20.8;;;;;;;3.34;100;93467.07;;;;
2021/02/07 04:24:09;;;;;;;37.45;20.8;;;;;;;3.34;100;93467.07;;;;
2021/02/07 04:25:10;;;;;;;37.45;20.8;;;;;;;3.34;100;93467.07;;;;
2021/02/07 04:26:11;;;;;;;37.45;20.8;;;;;;;3.34;100;93467.07;;;;
2021/02/07 04:27:11;;;;;;;37.45;20.7;;;;;;;3.32;100;93444.64;;;;
2021/02/07 04:28:12;;;;;;;37.45;20.7;;;;;;;3.32;100;93444.64;;;;
2021/02/07 04:29:12;;;;;;;37.45;20.7;;;;;;;3.32;100;93444.64;;;;
2021/02/07 04:30:12;;;;;;;37.45;20.7;;;;;;;3.32;100;93444.64;;;;
2021/02/07 04:31:14;;;;;;;37.45;20.7;;;;;;;3.32;100;93444.64;;;;
2021/02/07 04:32:15;;;;;;;37.45;20.7;;;;;;;3.32;100;93444.64;;;;
2021/02/07 04:33:16;;;;;;;37.45;20.7;;;;;;;3.32;100;93444.64;;;;
2021/02/07 04:34:16;;;;;;;37.45;20.7;;;;;;;3.32;100;93444.64;;;;
2021/02/07 04:35:17;;;;;;;37.45;20.7;;;;;;;3.32;100;93444.64;;;;
2021/02/07 04:36:19;;;;;;;37.45;20.7;;;;;;;3.32;100;93444.64;;;;
2021/02/07 04:37:19;;;;;;;37.45;20.7;;;;;;;3.32;100;93444.64;;;;
2021/02/07 04:38:20;;;;;;;33.75001;20;;;;;;;3.35;100;93429.07;;;;
2021/02/07 04:39:20;;;;;;;33.75001;20;;;;;;;3.35;100;93429.07;;;;
2021/02/07 04:40:21;;;;;;;33.75001;20;;;;;;;3.35;100;93429.07;;;;
2021/02/07 04:41:21;;;;;;;33.75001;20;;;;;;;3.35;100;93429.07;;;;
2021/02/07 04:42:22;;;;;;;33.75001;20;;;;;;;3.35;100;93429.07;;;;
2021/02/07 04:43:23;;;;;;;33.75001;20;;;;;;;3.35;100;93429.07;;;;
2021/02/07 04:44:25;;;;;;;33.75001;20;;;;;;;3.35;100;93429.07;;;;
2021/02/07 04:45:25;;;;;;;33.75001;20;;;;;;;3.35;100;93429.07;;;;
2021/02/07 04:46:26;;;;;;;33.75001;20;;;;;;;3.35;100;93429.07;;;;
2021/02/07 04:47:26;;;;;;;33.75001;20;;;;;;;3.35;100;93429.07;;;;
2021/02/07 04:48:28;;;;;;;38.09999;20.5;;;;;;;3.3;100;93432.57;;;;
2021/02/07 04:49:29;;;;;;;38.09999;20.5;;;;;;;3.3;100;93432.57;;;;
2021/02/07 04:50:30;;;;;;;38.09999;20.5;;;;;;;3.3;100;93432.57;;;;
2021/02/07 04:51:31;;;;;;;38.09999;20.5;;;;;;;3.3;100;93432.57;;;;
2021/02/07 04:52:32;;;;;;;38.09999;20.5;;;;;;;3.3;100;93432.57;;;;
2021/02/07 04:53:36;;;;;;;38.09999;20.5;;;;;;;3.3;100;93432.57;;;;
2021/02/07 04:54:37;;;;;;;38.09999;20.5;;;;;;;3.3;100;93432.57;;;;
2021/02/07 04:55:38;;;;;;;38.09999;20.5;;;;;;;3.3;100;93432.57;;;;
2021/02/07 04:56:38;;;;;;;38.09999;20.5;;;;;;;3.3;100;93432.57;;;;
2021/02/07 04:57:39;;;;;;;38.09999;20.5;;;;;;;3.3;100;93432.57;;;;
2021/02/07 04:58:42;;;;;;;38.09999;20.5;;;;;;;3.3;100;93432.57;;;;
2021/02/07 04:59:45;;;;;;;37.1;19.4;;;;;;;3.3;100;93407.64;;;;
2021/02/07 05:00:49;;;;;;;37.1;19.4;;;;;;;3.3;100;93407.64;;;;
2021/02/07 05:02:00;;;;;;;37.1;19.4;;;;;;;3.3;100;93407.64;;;;
2021/02/07 05:03:33;;;;;;;37.1;19.4;;;;;;;3.3;100;93407.64;;;;
2021/02/07 05:04:33;;;;;;;37.1;19.4;;;;;;;3.3;100;93407.64;;;;
2021/02/07 05:05:36;;;;;;;37.1;19.4;;;;;;;3.3;100;93407.64;;;;
2021/02/07 05:06:38;;;;;;;37.1;19.4;;;;;;;3.3;100;93407.64;;;;
2021/02/07 05:07:39;;;;;;;37.1;19.4;;;;;;;3.3;100;93407.64;;;;
2021/02/07 05:08:39;;;;;;;37.1;19.4;;;;;;;3.3;100;93407.64;;;;
2021/02/07 05:09:40;;;;;;;35.35;20.25;;;;;;;3.31;100;93414.2;;;;
2021/02/07 05:10:42;;;;;;;35.35;20.25;;;;;;;3.31;100;93414.2;;;;
2021/02/07 05:11:44;;;;;;;35.35;20.25;;;;;;;3.31;100;93414.2;;;;
2021/02/07 05:12:45;;;;;;;35.35;20.25;;;;;;;3.31;100;93414.2;;;;
2021/02/07 05:13:45;;;;;;;35.35;20.25;;;;;;;3.31;100;93414.2;;;;
2021/02/07 05:14:46;;;;;;;35.35;20.25;;;;;;;3.31;100;93414.2;;;;
2021/02/07 05:15:46;;;;;;;35.35;20.25;;;;;;;3.31;100;93414.2;;;;
2021/02/07 05:16:55;;;;;;;35.35;20.25;;;;;;;3.31;100;93414.2;;;;
2021/02/07 05:18:05;;;;;;;35.35;20.25;;;;;;;3.31;100;93414.2;;;;
2021/02/07 05:19:13;;;;;;;35.35;20.25;;;;;;;3.31;100;93414.2;;;;
2021/02/07 05:20:32;;;;;;;37.45;20.85;;;;;;;3.18;100;93423.71;;;;
2021/02/07 05:21:33;;;;;;;37.45;20.85;;;;;;;3.18;100;93423.71;;;;
2021/02/07 05:22:33;;;;;;;37.45;20.85;;;;;;;3.18;100;93423.71;;;;
2021/02/07 05:23:34;;;;;;;37.45;20.85;;;;;;;3.18;100;93423.71;;;;
2021/02/07 05:24:34;;;;;;;37.45;20.85;;;;;;;3.18;100;93423.71;;;;
2021/02/07 05:25:36;;;;;;;37.45;20.85;;;;;;;3.18;100;93423.71;;;;
2021/02/07 05:26:38;;;;;;;37.45;20.85;;;;;;;3.18;100;93423.71;;;;
2021/02/07 05:27:40;;;;;;;37.45;20.85;;;;;;;3.18;100;93423.71;;;;
2021/02/07 05:28:41;;;;;;;37.45;20.85;;;;;;;3.18;100;93423.71;;;;
2021/02/07 05:29:50;;;;;;;37.45;20.85;;;;;;;3.18;100;93423.71;;;;
2021/02/07 05:30:54;;;;;;;37.45;20.85;;;;;;;3.18;100;93423.71;;;;
2021/02/07 05:31:56;;;;;;;40.09999;20.9;;;;;;;3.16;100;93382.31;;;;
2021/02/07 05:32:58;;;;;;;40.09999;20.9;;;;;;;3.16;100;93382.31;;;;
2021/02/07 05:33:59;;;;;;;40.09999;20.9;;;;;;;3.16;100;93382.31;;;;
2021/02/07 05:35:02;;;;;;;40.09999;20.9;;;;;;;3.16;100;93382.31;;;;
2021/02/07 05:36:04;;;;;;;40.09999;20.9;;;;;;;3.16;100;93382.31;;;;
2021/02/07 05:37:14;;;;;;;40.09999;20.9;;;;;;;3.16;100;93382.31;;;;
2021/02/07 05:38:34;;;;;;;40.09999;20.9;;;;;;;3.16;100;93382.31;;;;
2021/02/07 05:39:34;;;;;;;40.09999;20.9;;;;;;;3.16;100;93382.31;;;;
2021/02/07 05:40:35;;;;;;;40.09999;20.9;;;;;;;3.16;100;93382.31;;;;
2021/02/07 05:41:36;;;;;;;40.09999;20.9;;;;;;;3.16;100;93382.31;;;;
2021/02/07 05:42:38;;;;;;;41.65001;20.8;;;;;;;3.09;100;93402.97;;;;
2021/02/07 05:43:38;;;;;;;41.65001;20.8;;;;;;;3.09;100;93402.97;;;;
2021/02/07 05:44:39;;;;;;;41.65001;20.8;;;;;;;3.09;100;93402.97;;;;
2021/02/07 05:45:39;;;;;;;41.65001;20.8;;;;;;;3.09;100;93402.97;;;;
2021/02/07 05:46:41;;;;;;;41.65001;20.8;;;;;;;3.09;100;93402.97;;;;
2021/02/07 05:47:51;;;;;;;41.65001;20.8;;;;;;;3.09;100;93402.97;;;;
2021/02/07 05:48:56;;;;;;;41.65001;20.8;;;;;;;3.09;100;93402.97;;;;
2021/02/07 05:49:57;;;;;;;41.65001;20.8;;;;;;;3.09;100;93402.97;;;;
2021/02/07 05:50:58;;;;;;;41.65001;20.8;;;;;;;3.09;100;93402.97;;;;
2021/02/07 05:51:59;;;;;;;41.65001;20.8;;;;;;;3.09;100;93402.97;;;;
2021/02/07 05:53:01;;;;;;;41.65;22.1;;;;;;;3.03;100;93366.48;;;;
2021/02/07 05:54:04;;;;;;;41.65;22.1;;;;;;;3.03;100;93366.48;;;;
2021/02/07 05:55:09;;;;;;;41.65;22.1;;;;;;;3.03;100;93366.48;;;;
2021/02/07 05:56:10;;;;;;;41.65;22.1;;;;;;;3.03;100;93366.48;;;;
2021/02/07 05:57:13;;;;;;;41.65;22.1;;;;;;;3.03;100;93366.48;;;;
2021/02/07 05:58:14;;;;;;;41.65;22.1;;;;;;;3.03;100;93366.48;;;;
2021/02/07 05:59:17;;;;;;;41.65;22.1;;;;;;;3.03;100;93366.48;;;;
2021/02/07 06:00:19;;;;;;;41.65;22.1;;;;;;;3.03;100;93366.48;;;;
2021/02/07 06:01:26;;;;;;;41.65;22.1;;;;;;;3.03;100;93366.48;;;;
2021/02/07 06:02:29;;;;;;;41.65;22.1;;;;;;;3.03;100;93366.48;;;;
2021/02/07 06:03:37;;;;;;;40.84999;21.15;;;;;;;3.07;100;93353.89;;;;
2021/02/07 06:04:42;;;;;;;40.84999;21.15;;;;;;;3.07;100;93353.89;;;;
2021/02/07 06:05:54;;;;;;;40.84999;21.15;;;;;;;3.07;100;93353.89;;;;
2021/02/07 06:06:55;;;;;;;40.84999;21.15;;;;;;;3.07;100;93353.89;;;;
2021/02/07 06:07:58;;;;;;;40.84999;21.15;;;;;;;3.07;100;93353.89;;;;
2021/02/07 06:09:01;;;;;;;40.84999;21.15;;;;;;;3.07;100;93353.89;;;;
2021/02/07 06:10:01;;;;;;;40.84999;21.15;;;;;;;3.07;100;93353.89;;;;
2021/02/07 06:11:03;;;;;;;40.84999;21.15;;;;;;;3.07;100;93353.89;;;;
2021/02/07 06:12:03;;;;;;;40.84999;21.15;;;;;;;3.07;100;93353.89;;;;
2021/02/07 06:13:06;;;;;;;40.84999;21.15;;;;;;;3.07;100;93353.89;;;;
2021/02/07 06:14:07;;;;;;;36.85;19.9;;;;;;;3.08;100;93354.68;;;;
2021/02/07 06:15:09;;;;;;;36.85;19.9;;;;;;;3.08;100;93354.68;;;;
2021/02/07 06:16:10;;;;;;;36.85;19.9;;;;;;;3.08;100;93354.68;;;;